Elat'Ma, Russia
Current Conditions -  °F | °C
As of 5:00 AM on Friday 21 Nov 2014 (Local Time) from UWGG Reporting Station
Haze Haze  
Wind Chill: 15°   Ceiling: 300
Heat Index: 21°   Visibility: 0.93mi
Dew Point: 19°   Wind: 4mph
Humidity: 93%   Direction: NA
Pressure: 30.56"   Gusts: NA
Location:  54.95°N, 41.77°E
Report Text: UWGG 210200Z VRB02MPS 1500 BR OVC003 M06/M07 Q1035 TEMPO 0300FZFG VV003 36090060 RMK QBB100 QFE769
Loading
Personal Weather Stations






























Interactive Weather Map New forecast layout! Learn more

10-Day Weather Forecast

Advertisements
Track Severe Weather on mobile